aviador You're here:

KMGW Decoded Metar

MORGANTOWN in WV, USA
Report Time2017-08-17 01:53:00
UTC Time2017-08-17 01:57:23
Flight Rules vfr VFR
WindCalm
Visibility9999 m
Phenomena:N/A
Clouds:N/A
Expected CloudBase > 1,200 ft AGL from Temp-Dew spread
CeilingNone
Temp22°C (ISA +9)
Dew Point19°C (83% RH)
QNH1019 hPa
Density Alt2,434 ft
Elevation1,240 ft
Report Wrong Elevation
Raw Report
METAR KMGW 170153Z 00000KT 10SM CLR 22/19 A3008 RMK AO2 SLP178
T02220194=

Extra information for KMGW:More info

Metar Taf Metar & Taf Last 4 Metars F.Rules Stats Wind Profile Meteogram Temp Stats Airport Information Weather charts Add Link Nearby VenuesMetar ALERT Operation Metar Decoded Social comments

AIRNAV info for KMGW